Time;durP1;ratioP1;P1;durP2;ratioP2;P2;SDS_P1;SDS_P2;PMS_P1;PMS_P2;Temp;Humidity;BMP_temperature;BMP_pressure;BME280_temperature;BME280_humidity;BME280_pressure;Samples;Min_cycle;Max_cycle;Signal;HPM_P1;HPM_P2
2023/06/05 00:00:31;;;;;;;1.70;1.60;;;21.90;50.00;21.20;96557.00;;;;6125642;23;20204;-84
2023/06/05 00:03:01;;;;;;;1.80;1.70;;;21.90;50.00;21.20;96557.00;;;;6125911;23;20265;-85
2023/06/05 00:05:29;;;;;;;1.73;1.60;;;21.90;50.10;21.20;96557.00;;;;6095986;23;20187;-84
2023/06/05 00:07:56;;;;;;;2.07;1.87;;;21.90;50.10;21.20;96553.00;;;;6097583;23;20235;-85
2023/06/05 00:10:24;;;;;;;1.90;1.70;;;21.80;50.10;21.20;96554.00;;;;6095212;23;20171;-85
2023/06/05 00:12:51;;;;;;;2.13;1.93;;;21.80;50.20;21.20;96550.00;;;;6095702;23;20251;-85
2023/06/05 00:15:19;;;;;;;2.20;2.00;;;21.80;50.40;21.20;96545.00;;;;6097419;23;20250;-85
2023/06/05 00:17:47;;;;;;;1.80;1.70;;;21.80;50.50;21.10;96542.00;;;;6095564;23;20179;-85
2023/06/05 00:20:15;;;;;;;3.63;1.90;;;21.80;50.50;21.10;96537.00;;;;6096690;23;20199;-83
2023/06/05 00:22:44;;;;;;;2.40;2.20;;;21.80;50.60;21.10;96538.00;;;;6095817;23;20221;-83
2023/06/05 00:25:12;;;;;;;2.67;2.30;;;21.80;50.80;21.10;96539.00;;;;6097492;23;20196;-85
2023/06/05 00:27:40;;;;;;;2.17;1.83;;;21.80;50.80;21.10;96540.00;;;;6097302;23;20273;-84
2023/06/05 00:30:09;;;;;;;1.97;1.77;;;21.80;50.90;21.10;96543.00;;;;6095560;23;20201;-85
2023/06/05 00:32:37;;;;;;;2.30;2.10;;;21.80;50.90;21.20;96541.00;;;;6097219;23;20176;-85
2023/06/05 00:35:05;;;;;;;2.77;2.03;;;21.80;51.00;21.20;96535.00;;;;6097025;23;20266;-85
2023/06/05 00:37:37;;;;;;;2.47;2.10;;;21.80;51.20;21.10;96533.00;;;;6098294;23;20631;-85
2023/06/05 00:40:08;;;;;;;3.73;2.20;;;21.80;51.40;21.10;96526.00;;;;6079379;23;20167;-85
2023/06/05 00:42:36;;;;;;;2.30;2.13;;;21.80;51.50;21.10;96531.00;;;;6110627;23;20172;-81
2023/06/05 00:45:03;;;;;;;4.67;1.97;;;21.80;51.50;21.10;96524.00;;;;6122684;23;20187;-84
2023/06/05 00:47:31;;;;;;;2.57;2.20;;;21.80;51.50;21.10;96525.00;;;;6122857;23;20542;-84
2023/06/05 00:50:00;;;;;;;2.10;1.90;;;21.80;51.70;21.10;96526.00;;;;6112305;23;20177;-84
2023/06/05 00:52:29;;;;;;;2.30;2.10;;;21.80;51.70;21.10;96527.00;;;;6110285;23;20160;-82
2023/06/05 00:54:58;;;;;;;2.23;1.90;;;21.80;51.70;21.10;96525.00;;;;6114732;23;20198;-84
2023/06/05 00:57:28;;;;;;;4.00;2.47;;;21.80;51.80;21.10;96527.00;;;;6118290;23;20194;-83
2023/06/05 00:59:55;;;;;;;1.97;1.87;;;21.80;51.80;21.10;96529.00;;;;6118341;23;20211;-85
2023/06/05 01:02:27;;;;;;;2.17;1.90;;;21.80;52.00;21.10;96526.00;;;;6072943;23;20635;-83
2023/06/05 01:04:56;;;;;;;3.17;2.17;;;21.80;52.10;21.10;96526.00;;;;6097039;23;20198;-85
2023/06/05 01:07:25;;;;;;;2.50;2.33;;;21.80;52.20;21.10;96520.00;;;;6101228;23;20178;-85
2023/06/05 01:09:53;;;;;;;3.37;2.30;;;21.80;52.30;21.10;96522.00;;;;6099285;23;20250;-85
2023/06/05 01:12:31;;;;;;;2.57;2.37;;;21.80;52.50;21.10;96526.00;;;;6100341;23;20213;-85
2023/06/05 01:15:02;;;;;;;2.70;2.40;;;21.70;52.70;21.10;96521.00;;;;6125781;23;20650;-85
2023/06/05 01:17:33;;;;;;;2.80;2.27;;;21.80;52.70;21.10;96521.00;;;;6099548;23;20178;-85
2023/06/05 01:20:09;;;;;;;2.37;2.17;;;21.80;52.90;21.10;96519.00;;;;6100764;23;20198;-86
2023/06/05 01:22:37;;;;;;;2.40;2.20;;;21.70;52.90;21.10;96519.00;;;;6126056;23;20160;-85
2023/06/05 01:25:11;;;;;;;2.13;2.03;;;21.70;52.90;21.10;96513.00;;;;6126315;23;20199;-85
2023/06/05 01:27:49;;;;;;;3.77;2.23;;;21.80;53.40;21.10;96513.00;;;;6099887;23;20723;-85
2023/06/05 01:30:29;;;;;;;2.53;2.33;;;21.70;53.40;21.10;96510.00;;;;6125530;23;20186;-85
2023/06/05 01:33:03;;;;;;;2.53;2.33;;;21.70;53.40;21.10;96511.00;;;;6102118;23;20172;-84
2023/06/05 01:35:35;;;;;;;2.53;2.20;;;21.70;53.50;21.10;96513.00;;;;6125787;23;20484;-85
2023/06/05 01:38:05;;;;;;;2.47;2.27;;;21.70;53.50;21.10;96510.00;;;;6100803;23;20198;-85
2023/06/05 01:40:36;;;;;;;2.80;2.13;;;21.70;53.60;21.10;96510.00;;;;6100112;23;20253;-83
2023/06/05 01:43:07;;;;;;;2.53;2.33;;;21.70;53.70;21.10;96514.00;;;;6125458;23;20270;-85
2023/06/05 01:45:40;;;;;;;3.30;3.10;;;21.70;53.70;21.10;96500.00;;;;6125960;23;20201;-85
2023/06/05 01:48:10;;;;;;;2.60;2.40;;;21.70;53.70;21.10;96503.00;;;;6099962;23;20506;-85
2023/06/05 01:50:38;;;;;;;2.67;2.20;;;21.70;53.80;21.10;96501.00;;;;6099533;23;20159;-85
2023/06/05 01:53:07;;;;;;;2.60;2.40;;;21.70;53.80;21.10;96496.00;;;;6099478;23;20177;-85
2023/06/05 01:55:39;;;;;;;2.73;2.53;;;21.70;53.90;21.10;96497.00;;;;6125012;23;20258;-84
2023/06/05 01:58:06;;;;;;;2.80;2.60;;;21.70;54.00;21.10;96500.00;;;;6075550;23;20634;-86
2023/06/05 02:00:35;;;;;;;3.60;2.47;;;21.70;53.90;21.10;96501.00;;;;6098822;23;20190;-86
2023/06/05 02:03:03;;;;;;;2.53;2.33;;;21.70;53.90;21.10;96491.00;;;;6125405;23;20183;-85
2023/06/05 02:05:33;;;;;;;2.40;2.27;;;21.70;54.00;21.10;96493.00;;;;6125577;23;20739;-86
2023/06/05 02:08:05;;;;;;;2.97;2.33;;;21.70;54.00;21.10;96498.00;;;;6125741;23;20179;-86
2023/06/05 02:10:35;;;;;;;2.90;2.50;;;21.70;54.00;21.10;96495.00;;;;6125809;23;20194;-86
2023/06/05 02:13:04;;;;;;;2.63;2.43;;;21.70;54.00;21.00;96497.00;;;;6099771;23;20182;-86
2023/06/05 02:15:33;;;;;;;2.30;2.20;;;21.70;54.20;21.00;96502.00;;;;6125621;23;20177;-86
2023/06/05 02:18:04;;;;;;;2.93;2.70;;;21.70;54.20;21.00;96491.00;;;;6100190;23;20740;-82
2023/06/05 02:20:34;;;;;;;2.93;2.73;;;21.70;54.30;21.00;96489.00;;;;6124768;23;20169;-86
2023/06/05 02:23:02;;;;;;;2.77;2.50;;;21.70;54.60;21.00;96491.00;;;;6100478;23;20159;-85
2023/06/05 02:25:30;;;;;;;2.93;2.60;;;21.70;54.70;21.00;96502.00;;;;6099856;23;20170;-86
2023/06/05 02:27:57;;;;;;;3.03;2.40;;;21.60;54.60;21.00;96498.00;;;;6125551;23;20272;-85
2023/06/05 02:30:26;;;;;;;2.20;2.10;;;21.60;54.70;21.00;96497.00;;;;6099515;23;20178;-86
2023/06/05 02:32:56;;;;;;;3.00;2.70;;;21.60;54.80;21.00;96503.00;;;;6125135;23;20170;-85
2023/06/05 02:35:24;;;;;;;2.53;2.33;;;21.60;54.80;21.00;96495.00;;;;6125704;23;20173;-86
2023/06/05 02:37:52;;;;;;;2.87;2.50;;;21.60;54.90;21.00;96495.00;;;;6124849;23;20211;-86
2023/06/05 02:40:19;;;;;;;2.60;2.40;;;21.60;55.00;21.00;96487.00;;;;6099259;23;20181;-85
2023/06/05 02:42:46;;;;;;;2.90;2.70;;;21.60;55.50;20.90;96493.00;;;;6098803;23;20173;-86
2023/06/05 02:45:14;;;;;;;4.43;3.10;;;21.60;55.00;20.90;96486.00;;;;6074955;23;20274;-86
2023/06/05 02:47:43;;;;;;;3.03;2.73;;;21.60;55.10;20.90;96493.00;;;;6098423;23;20229;-86
2023/06/05 02:50:11;;;;;;;3.03;2.80;;;21.60;55.30;20.90;96490.00;;;;6125139;23;20217;-85
2023/06/05 02:52:39;;;;;;;3.13;2.70;;;21.60;55.30;20.90;96497.00;;;;6124466;23;20668;-86
2023/06/05 02:55:07;;;;;;;4.53;3.00;;;21.60;55.30;20.80;96489.00;;;;6099585;23;20198;-87
2023/06/05 02:57:40;;;;;;;3.00;2.80;;;21.60;55.30;20.80;96492.00;;;;6125105;23;20175;-86
2023/06/05 03:00:14;;;;;;;2.67;2.47;;;21.60;55.30;20.80;96497.00;;;;6124741;23;20490;-86
2023/06/05 03:02:48;;;;;;;2.87;2.30;;;21.60;55.30;20.80;96497.00;;;;6101217;23;20674;-86
2023/06/05 03:05:17;;;;;;;2.73;2.53;;;21.50;55.30;20.80;96498.00;;;;6125094;23;20257;-86
2023/06/05 03:07:44;;;;;;;3.07;2.77;;;21.50;55.20;20.80;96500.00;;;;6099816;23;20230;-85
2023/06/05 03:10:13;;;;;;;3.03;2.73;;;21.50;55.20;20.80;96488.00;;;;6098960;23;20250;-84
2023/06/05 03:12:40;;;;;;;3.23;2.77;;;21.50;55.30;20.70;96497.00;;;;6125370;23;20533;-86
2023/06/05 03:15:10;;;;;;;3.20;2.90;;;21.40;55.30;20.70;96486.00;;;;6101003;23;20733;-86
2023/06/05 03:17:38;;;;;;;2.87;2.67;;;21.40;55.40;20.70;96489.00;;;;6126563;23;20177;-86
2023/06/05 03:20:09;;;;;;;3.03;2.83;;;21.40;55.40;20.70;96496.00;;;;6100867;23;20261;-86
2023/06/05 03:22:38;;;;;;;2.97;2.77;;;21.40;55.50;20.70;96489.00;;;;6077397;23;20182;-86
2023/06/05 03:25:08;;;;;;;3.83;2.77;;;21.40;55.60;20.70;96492.00;;;;6077710;23;20193;-86
2023/06/05 03:27:35;;;;;;;3.37;3.00;;;21.40;55.70;20.70;96488.00;;;;6100760;23;20171;-86
2023/06/05 03:30:03;;;;;;;3.13;2.93;;;21.40;55.70;20.60;96488.00;;;;6077051;23;20182;-86
2023/06/05 03:32:32;;;;;;;2.97;2.77;;;21.40;55.70;20.60;96479.00;;;;6077100;23;20174;-86
2023/06/05 03:34:59;;;;;;;3.10;2.80;;;21.30;55.70;20.60;96483.00;;;;6126038;23;20187;-86
2023/06/05 03:37:28;;;;;;;3.37;2.90;;;21.30;55.70;20.60;96475.00;;;;6126449;23;20277;-86
2023/06/05 03:39:55;;;;;;;2.90;2.70;;;21.30;56.40;20.60;96488.00;;;;6076284;23;20181;-86
2023/06/05 03:42:23;;;;;;;3.00;2.80;;;21.30;55.70;20.60;96488.00;;;;6126039;23;20198;-86
2023/06/05 03:44:50;;;;;;;2.60;2.40;;;21.30;55.70;20.60;96495.00;;;;6100130;23;20198;-84
2023/06/05 03:47:20;;;;;;;3.00;2.70;;;21.30;55.70;20.60;96489.00;;;;6125878;23;20177;-86
2023/06/05 03:49:48;;;;;;;2.57;2.37;;;21.30;55.70;20.60;96495.00;;;;6125752;23;20198;-86
2023/06/05 03:52:16;;;;;;;2.43;2.30;;;21.30;56.30;20.60;96492.00;;;;6100978;23;20262;-86
2023/06/05 03:54:47;;;;;;;3.47;2.80;;;21.30;55.80;20.60;96496.00;;;;6101646;23;20202;-86
2023/06/05 03:57:15;;;;;;;2.90;2.60;;;21.30;56.00;20.60;96495.00;;;;6100871;23;20226;-86
2023/06/05 03:59:42;;;;;;;2.57;2.37;;;21.30;56.00;20.60;96492.00;;;;6100881;23;20639;-84
2023/06/05 04:02:10;;;;;;;3.00;2.73;;;21.30;56.00;20.60;96498.00;;;;6053142;23;20656;-86
2023/06/05 04:04:37;;;;;;;6.00;2.57;;;21.30;56.00;20.60;96501.00;;;;6125835;23;20191;-86
2023/06/05 04:07:05;;;;;;;2.53;2.33;;;21.30;56.00;20.60;96498.00;;;;6126235;23;20202;-86
2023/06/05 04:09:33;;;;;;;2.93;2.73;;;21.30;56.10;20.60;96502.00;;;;6126403;23;20193;-86
2023/06/05 04:12:03;;;;;;;3.07;2.77;;;21.30;56.10;20.60;96498.00;;;;6126145;23;20575;-86
2023/06/05 04:14:30;;;;;;;3.77;2.87;;;21.30;56.10;20.50;96494.00;;;;6100695;23;20187;-86
2023/06/05 04:16:59;;;;;;;2.47;2.23;;;21.20;56.10;20.50;96497.00;;;;6126332;23;20200;-87
2023/06/05 04:19:27;;;;;;;3.17;2.80;;;21.20;56.20;20.50;96503.00;;;;6125951;23;20177;-86
2023/06/05 04:21:54;;;;;;;2.60;2.40;;;21.20;56.20;20.50;96496.00;;;;6100615;23;20256;-86
2023/06/05 04:24:24;;;;;;;2.70;2.50;;;21.20;56.30;20.50;96497.00;;;;6080923;23;20284;-86
2023/06/05 04:26:53;;;;;;;4.73;2.67;;;21.20;56.40;20.40;96501.00;;;;6134775;23;20258;-87
2023/06/05 04:29:22;;;;;;;2.80;2.53;;;21.20;56.30;20.40;96502.00;;;;6143870;23;20276;-86
2023/06/05 04:31:53;;;;;;;2.77;2.50;;;21.20;56.50;20.40;96501.00;;;;6141849;23;20180;-85
2023/06/05 04:34:20;;;;;;;2.80;2.40;;;21.20;56.50;20.40;96496.00;;;;6102642;23;20246;-84
2023/06/05 04:36:49;;;;;;;4.10;2.80;;;21.10;56.50;20.40;96498.00;;;;6141853;23;20729;-84
2023/06/05 04:39:18;;;;;;;2.70;2.50;;;21.10;56.40;20.40;96501.00;;;;6135542;23;20174;-81
2023/06/05 04:41:47;;;;;;;2.50;2.30;;;21.10;56.40;20.40;96491.00;;;;6076593;23;20181;-84
2023/06/05 04:44:16;;;;;;;2.70;2.50;;;21.10;56.30;20.40;96490.00;;;;6100258;23;20198;-85
2023/06/05 04:46:45;;;;;;;3.13;2.57;;;21.10;56.30;20.40;96492.00;;;;6076810;23;20178;-86
2023/06/05 04:49:13;;;;;;;3.00;2.70;;;21.10;56.40;20.40;96490.00;;;;6126235;23;20203;-86
2023/06/05 04:51:43;;;;;;;2.73;2.53;;;21.10;56.50;20.30;96494.00;;;;6052922;23;20177;-86
2023/06/05 04:54:11;;;;;;;2.47;2.27;;;21.10;56.50;20.30;96490.00;;;;6126295;23;20745;-86
2023/06/05 04:56:39;;;;;;;2.83;2.50;;;21.10;56.70;20.30;96497.00;;;;6126440;23;20178;-86
2023/06/05 04:59:07;;;;;;;4.53;2.80;;;21.00;56.70;20.30;96492.00;;;;6101169;23;20167;-86
2023/06/05 05:01:34;;;;;;;3.07;2.77;;;21.00;56.50;20.30;96497.00;;;;6101579;23;20175;-85
2023/06/05 05:04:03;;;;;;;2.80;2.60;;;21.00;56.60;20.30;96493.00;;;;6127111;23;20225;-84
2023/06/05 05:06:31;;;;;;;3.20;2.40;;;21.00;56.70;20.30;96492.00;;;;6096075;23;20192;-85
2023/06/05 05:08:58;;;;;;;2.83;2.63;;;21.00;56.80;20.30;96498.00;;;;6097263;23;20199;-85
2023/06/05 05:11:26;;;;;;;3.83;2.50;;;21.00;56.90;20.30;96493.00;;;;6095670;23;20171;-86
2023/06/05 05:13:54;;;;;;;3.33;3.03;;;21.00;57.10;20.30;96507.00;;;;6095355;23;20207;-87
2023/06/05 05:16:22;;;;;;;2.93;2.57;;;21.00;57.20;20.40;96502.00;;;;6095888;23;20181;-85
2023/06/05 05:18:49;;;;;;;5.63;2.97;;;21.00;57.60;20.40;96502.00;;;;6096555;23;20979;-84
2023/06/05 05:21:18;;;;;;;3.77;2.63;;;21.10;57.10;20.40;96502.00;;;;6095200;23;20691;-86
2023/06/05 05:23:45;;;;;;;2.87;2.47;;;21.10;57.20;20.40;96504.00;;;;6096001;23;20193;-85
2023/06/05 05:26:13;;;;;;;2.50;2.30;;;21.10;57.20;20.50;96504.00;;;;6070625;23;20191;-86
2023/06/05 05:28:40;;;;;;;2.70;2.40;;;21.10;57.20;20.50;96510.00;;;;6095177;23;20200;-86
2023/06/05 05:31:08;;;;;;;3.00;2.70;;;21.20;57.30;20.60;96506.00;;;;6095670;23;20168;-85
2023/06/05 05:33:35;;;;;;;2.40;2.20;;;21.20;57.20;20.60;96510.00;;;;6093382;23;20293;-81
2023/06/05 05:36:03;;;;;;;2.70;2.50;;;21.20;57.40;20.60;96510.00;;;;6093122;23;20570;-82
2023/06/05 05:38:32;;;;;;;3.23;2.53;;;21.30;57.60;20.60;96502.00;;;;6093723;23;20178;-83
2023/06/05 05:41:00;;;;;;;2.87;2.40;;;21.30;57.60;20.70;96510.00;;;;6094272;23;20230;-83
2023/06/05 05:43:27;;;;;;;2.60;2.40;;;21.30;57.40;20.70;96513.00;;;;6092950;23;20266;-83
2023/06/05 05:45:54;;;;;;;4.30;3.00;;;21.40;57.50;20.80;96516.00;;;;6094963;23;20202;-82
2023/06/05 05:48:22;;;;;;;2.80;2.50;;;21.40;57.60;20.80;96510.00;;;;6095915;23;20254;-83
2023/06/05 05:50:50;;;;;;;3.87;2.83;;;21.40;57.60;20.80;96515.00;;;;6093703;23;20168;-82
2023/06/05 05:53:17;;;;;;;2.63;2.30;;;21.40;57.60;20.80;96518.00;;;;6097764;23;20705;-83
2023/06/05 05:55:46;;;;;;;2.73;2.53;;;21.50;57.60;20.90;96513.00;;;;6098427;23;20175;-83
2023/06/05 05:58:14;;;;;;;2.90;2.70;;;21.50;57.80;20.90;96521.00;;;;6097717;23;20852;-83
2023/06/05 06:00:41;;;;;;;2.90;2.53;;;21.50;57.60;21.00;96523.00;;;;6096970;23;20252;-83
2023/06/05 06:03:08;;;;;;;2.77;2.57;;;21.50;57.60;21.00;96519.00;;;;6097727;23;20186;-82
2023/06/05 06:05:37;;;;;;;4.90;2.63;;;21.60;57.90;21.00;96522.00;;;;6108049;23;20232;-83
2023/06/05 06:08:04;;;;;;;4.80;2.93;;;21.60;57.30;21.10;96519.00;;;;6126942;23;20218;-83
2023/06/05 06:10:32;;;;;;;2.90;2.70;;;21.70;57.50;21.10;96529.00;;;;6079894;23;20871;-83
2023/06/05 06:13:01;;;;;;;2.90;2.63;;;21.70;57.40;21.20;96518.00;;;;6098235;23;20642;-83
2023/06/05 06:15:28;;;;;;;3.47;2.60;;;21.80;57.70;21.30;96520.00;;;;6099475;23;20522;-83
2023/06/05 06:17:57;;;;;;;3.20;2.90;;;21.80;57.70;21.30;96521.00;;;;6124780;23;20657;-83
2023/06/05 06:20:27;;;;;;;3.37;2.97;;;21.90;57.50;21.40;96519.00;;;;6098684;23;20546;-82
2023/06/05 06:22:54;;;;;;;3.43;3.13;;;21.90;57.20;21.50;96522.00;;;;6098474;23;20241;-83
2023/06/05 06:25:25;;;;;;;2.83;2.60;;;22.00;57.50;21.60;96521.00;;;;6123765;23;20257;-83
2023/06/05 06:27:53;;;;;;;2.73;2.47;;;22.10;57.60;21.60;96523.00;;;;6123455;23;20166;-82
2023/06/05 06:30:22;;;;;;;3.20;2.90;;;22.10;57.40;21.70;96522.00;;;;6097257;23;20666;-82
2023/06/05 06:32:50;;;;;;;2.80;2.60;;;22.20;57.30;21.70;96526.00;;;;6096945;23;20170;-82
2023/06/05 06:35:17;;;;;;;3.00;2.60;;;22.30;57.30;21.80;96520.00;;;;6123654;23;20253;-83
2023/06/05 06:37:44;;;;;;;3.53;2.60;;;22.30;57.30;21.90;96527.00;;;;6122527;23;20680;-82
2023/06/05 06:40:14;;;;;;;2.93;2.60;;;22.30;57.20;21.90;96521.00;;;;6124200;23;20253;-81
2023/06/05 06:42:41;;;;;;;3.53;2.87;;;22.40;57.30;22.00;96526.00;;;;6100213;23;20205;-82
2023/06/05 06:45:09;;;;;;;3.10;2.90;;;22.50;57.30;22.00;96528.00;;;;6104774;23;20200;-84
2023/06/05 06:47:38;;;;;;;2.53;2.33;;;22.50;57.00;22.10;96523.00;;;;6111899;23;20193;-87
2023/06/05 06:50:07;;;;;;;2.90;2.60;;;22.50;57.10;22.10;96521.00;;;;6140881;23;20210;-83
2023/06/05 06:52:34;;;;;;;3.20;2.90;;;22.60;57.10;22.20;96536.00;;;;6090172;23;20529;-83
2023/06/05 06:55:03;;;;;;;2.97;2.77;;;22.60;57.00;22.30;96540.00;;;;6078761;23;20218;-81
2023/06/05 06:57:30;;;;;;;3.10;2.80;;;22.70;56.90;22.30;96534.00;;;;6124858;23;20648;-82
2023/06/05 06:59:57;;;;;;;3.83;3.10;;;22.80;56.80;22.40;96544.00;;;;6125156;23;20183;-81
2023/06/05 07:02:26;;;;;;;3.20;2.90;;;22.80;56.80;22.40;96543.00;;;;6124498;23;20660;-82
2023/06/05 07:04:55;;;;;;;4.50;2.83;;;22.90;56.70;22.50;96536.00;;;;6098658;23;20195;-82
2023/06/05 07:07:22;;;;;;;3.27;2.93;;;22.90;56.70;22.60;96541.00;;;;6123979;23;20665;-82
2023/06/05 07:09:51;;;;;;;3.60;2.97;;;23.00;56.40;22.70;96537.00;;;;6122801;23;20277;-82
2023/06/05 07:12:22;;;;;;;3.70;2.87;;;23.10;56.40;22.80;96544.00;;;;6124800;23;20202;-82
2023/06/05 07:14:50;;;;;;;3.00;2.80;;;23.20;56.30;22.90;96544.00;;;;6126250;23;20190;-81
2023/06/05 07:17:17;;;;;;;3.03;2.83;;;23.30;56.20;22.90;96543.00;;;;6126156;23;20176;-82
2023/06/05 07:19:45;;;;;;;3.13;2.63;;;23.40;56.10;23.00;96542.00;;;;6100224;23;20245;-82
2023/06/05 07:22:13;;;;;;;2.93;2.73;;;23.40;56.00;23.10;96538.00;;;;6125037;23;20167;-81
2023/06/05 07:24:41;;;;;;;3.13;2.73;;;23.50;56.00;23.10;96538.00;;;;6097966;23;20210;-83
2023/06/05 07:27:09;;;;;;;3.70;2.77;;;23.60;56.00;23.30;96534.00;;;;6124738;23;20185;-83
2023/06/05 07:29:37;;;;;;;2.80;2.60;;;23.70;55.90;23.30;96530.00;;;;6098644;23;20192;-83
2023/06/05 07:32:07;;;;;;;2.70;2.50;;;23.70;56.30;23.40;96526.00;;;;6074545;23;20175;-80
2023/06/05 07:34:34;;;;;;;2.77;2.57;;;23.80;55.80;23.50;96536.00;;;;6124302;23;20203;-83
2023/06/05 07:37:02;;;;;;;3.07;2.73;;;23.90;55.60;23.60;96532.00;;;;6127123;23;20182;-83
2023/06/05 07:39:30;;;;;;;3.13;2.93;;;24.00;55.20;23.70;96534.00;;;;6126423;23;20204;-83
2023/06/05 07:41:58;;;;;;;2.67;2.47;;;24.10;55.00;23.80;96532.00;;;;6125407;23;20576;-83
2023/06/05 07:44:25;;;;;;;3.03;2.73;;;24.20;54.90;23.90;96539.00;;;;6076793;23;20202;-84
2023/06/05 07:46:53;;;;;;;2.73;2.53;;;24.30;54.80;24.00;96524.00;;;;6127037;23;20205;-82
2023/06/05 07:49:23;;;;;;;4.23;2.70;;;24.40;54.70;24.10;96530.00;;;;6100300;23;20255;-82
2023/06/05 07:51:51;;;;;;;3.00;2.77;;;24.50;54.60;24.20;96530.00;;;;6126615;23;20173;-83
2023/06/05 07:54:19;;;;;;;5.10;2.80;;;24.60;54.60;24.30;96530.00;;;;6100103;23;20199;-83
2023/06/05 07:56:50;;;;;;;5.50;3.07;;;24.70;54.40;24.40;96522.00;;;;6125472;23;20171;-82
2023/06/05 07:59:22;;;;;;;3.07;2.77;;;24.80;54.30;24.50;96527.00;;;;6126498;23;20157;-83
2023/06/05 08:01:49;;;;;;;2.90;2.70;;;24.90;54.20;24.60;96534.00;;;;6125834;23;20471;-80
2023/06/05 08:04:17;;;;;;;2.80;2.20;;;25.00;53.90;24.70;96529.00;;;;6076220;23;20202;-82
2023/06/05 08:06:45;;;;;;;3.47;2.77;;;25.10;53.60;24.80;96529.00;;;;6094883;23;20258;-84
2023/06/05 08:09:12;;;;;;;4.10;3.00;;;25.20;53.40;24.80;96526.00;;;;6096746;23;20206;-83
2023/06/05 08:11:42;;;;;;;2.97;2.67;;;25.20;52.90;24.90;96527.00;;;;6096429;23;20274;-82
2023/06/05 08:14:11;;;;;;;2.80;2.60;;;25.30;52.60;25.00;96526.00;;;;6095625;23;20205;-82
2023/06/05 08:16:38;;;;;;;3.27;2.80;;;25.40;52.60;25.00;96532.00;;;;6093656;23;20202;-82
2023/06/05 08:19:06;;;;;;;3.13;2.90;;;25.50;52.60;25.10;96535.00;;;;6095925;23;20207;-82
2023/06/05 08:21:35;;;;;;;2.77;2.57;;;25.50;52.60;25.20;96532.00;;;;6093769;23;20240;-81
2023/06/05 08:24:02;;;;;;;2.70;2.53;;;25.60;52.50;25.30;96542.00;;;;6069951;23;20203;-82
2023/06/05 08:26:29;;;;;;;3.20;3.00;;;25.70;52.30;25.40;96537.00;;;;6092997;23;20673;-82
2023/06/05 08:28:57;;;;;;;3.37;2.57;;;25.80;52.20;25.50;96531.00;;;;6094811;23;20183;-82
2023/06/05 08:31:25;;;;;;;3.10;2.90;;;25.90;52.10;25.60;96533.00;;;;6093174;23;20892;-83
2023/06/05 08:33:53;;;;;;;3.10;2.80;;;26.00;51.90;25.70;96528.00;;;;6094366;23;20199;-82
2023/06/05 08:36:21;;;;;;;2.77;2.57;;;26.10;51.60;25.80;96530.00;;;;6094638;23;20203;-82
2023/06/05 08:38:48;;;;;;;2.90;2.70;;;26.20;51.50;25.90;96528.00;;;;6094502;23;20250;-83
2023/06/05 08:41:16;;;;;;;2.97;2.70;;;26.30;51.40;25.90;96528.00;;;;6094874;23;20534;-88
2023/06/05 08:43:44;;;;;;;2.70;2.50;;;26.30;51.20;26.00;96525.00;;;;6096540;23;20218;-83
2023/06/05 08:46:15;;;;;;;3.20;2.77;;;26.40;51.10;26.10;96522.00;;;;6097472;23;20624;-83
2023/06/05 08:48:47;;;;;;;3.00;2.70;;;26.50;50.80;26.20;96524.00;;;;6096125;23;20172;-82
2023/06/05 08:51:17;;;;;;;4.17;3.50;;;26.60;50.60;26.30;96524.00;;;;6096064;23;20199;-83
2023/06/05 08:53:54;;;;;;;2.77;2.57;;;26.70;50.40;26.40;96521.00;;;;6096277;23;20202;-83
2023/06/05 08:56:22;;;;;;;4.50;2.70;;;26.80;50.20;26.40;96524.00;;;;6097479;23;20171;-83
2023/06/05 08:58:50;;;;;;;3.53;2.70;;;26.80;49.90;26.50;96520.00;;;;6099502;23;20171;-82
2023/06/05 09:01:18;;;;;;;2.90;2.70;;;26.90;49.90;26.50;96525.00;;;;6096259;23;20182;-82
2023/06/05 09:03:46;;;;;;;2.90;2.70;;;26.90;49.80;26.50;96530.00;;;;6096435;23;20195;-82
2023/06/05 09:06:14;;;;;;;2.67;2.47;;;26.90;49.80;26.50;96523.00;;;;6118036;23;20186;-83
2023/06/05 09:08:41;;;;;;;2.87;2.63;;;27.00;50.00;26.60;96525.00;;;;6135228;23;20175;-82
2023/06/05 09:11:28;;;;;;;3.10;2.83;;;27.10;50.10;26.80;96532.00;;;;6134493;23;20202;-82
2023/06/05 09:13:57;;;;;;;2.60;2.40;;;27.10;49.70;26.90;96531.00;;;;6132829;23;20190;-83
2023/06/05 09:16:35;;;;;;;2.63;2.43;;;27.20;50.00;27.10;96521.00;;;;6100210;23;20185;-82
2023/06/05 09:19:04;;;;;;;3.67;2.80;;;27.40;49.40;27.20;96519.00;;;;6124247;23;20226;-83
2023/06/05 09:21:32;;;;;;;3.07;2.87;;;27.50;49.40;27.40;96522.00;;;;6075503;23;20181;-82
2023/06/05 09:24:17;;;;;;;3.30;2.50;;;27.70;49.40;27.50;96524.00;;;;6125336;23;20669;-82
2023/06/05 09:26:53;;;;;;;2.70;2.50;;;27.90;49.10;27.70;96518.00;;;;6126238;23;20178;-83
2023/06/05 09:29:29;;;;;;;2.70;2.50;;;28.10;49.20;28.00;96525.00;;;;6076715;23;20171;-82
2023/06/05 09:31:59;;;;;;;3.13;2.92;;;28.30;48.70;28.20;96527.00;;;;6125808;23;20175;-83
2023/06/05 09:34:31;;;;;;;2.70;2.50;;;28.50;48.60;28.40;96525.00;;;;6101376;23;20191;-82
2023/06/05 09:37:00;;;;;;;3.00;2.53;;;28.80;48.30;28.50;96520.00;;;;6138555;23;20198;-83
2023/06/05 09:39:28;;;;;;;3.85;2.90;;;29.00;47.60;28.60;96516.00;;;;6138376;23;20185;-83
2023/06/05 09:41:57;;;;;;;2.88;2.67;;;29.10;47.20;28.60;96515.00;;;;6112633;23;20252;-83
2023/06/05 09:44:28;;;;;;;2.90;2.67;;;29.20;47.10;28.80;96521.00;;;;6111133;23;20202;-82
2023/06/05 09:46:58;;;;;;;3.05;2.85;;;29.30;47.00;28.90;96514.00;;;;6130213;23;20178;-82
2023/06/05 09:49:49;;;;;;;2.15;2.05;;;29.50;47.10;29.10;96522.00;;;;6124946;23;20217;-83
2023/06/05 09:52:17;;;;;;;2.88;2.30;;;29.70;46.40;29.20;96522.00;;;;6101308;23;20287;-86
2023/06/05 09:54:46;;;;;;;2.60;2.40;;;29.80;45.90;29.20;96511.00;;;;6125533;23;20268;-83
2023/06/05 09:57:14;;;;;;;3.50;2.83;;;30.00;45.70;29.30;96517.00;;;;6100525;23;20635;-82
2023/06/05 09:59:51;;;;;;;2.90;2.58;;;30.10;45.50;29.40;96508.00;;;;6125102;23;20221;-83
2023/06/05 10:02:21;;;;;;;2.40;2.22;;;30.20;45.00;29.50;96511.00;;;;6099216;23;20634;-82
2023/06/05 10:04:57;;;;;;;2.50;2.30;;;30.30;45.60;29.70;96512.00;;;;6099727;23;20195;-82
2023/06/05 10:07:26;;;;;;;2.53;2.35;;;30.50;44.90;29.80;96513.00;;;;6094648;23;20175;-83
2023/06/05 10:09:55;;;;;;;5.93;2.38;;;30.70;45.00;29.90;96514.00;;;;6068498;23;20255;-82
2023/06/05 10:12:26;;;;;;;2.85;2.22;;;30.80;44.80;30.00;96515.00;;;;6068701;23;20704;-82
2023/06/05 10:14:56;;;;;;;2.53;2.13;;;30.90;44.00;30.00;96510.00;;;;6068091;23;20438;-80
2023/06/05 10:17:24;;;;;;;2.63;2.33;;;31.00;44.10;30.00;96514.00;;;;6093453;23;20213;-83
2023/06/05 10:19:53;;;;;;;2.13;2.03;;;31.00;44.20;30.10;96512.00;;;;6092286;23;20172;-82
2023/06/05 10:22:22;;;;;;;2.70;2.50;;;31.00;43.90;30.20;96505.00;;;;6067969;23;20181;-82
2023/06/05 10:24:57;;;;;;;2.30;2.10;;;31.10;43.80;30.30;96503.00;;;;6070401;23;20222;-80
2023/06/05 10:27:54;;;;;;;2.60;2.13;;;31.10;43.80;30.40;96507.00;;;;6071216;23;20487;-83
2023/06/05 10:31:26;;;;;;;2.50;2.30;;;31.20;43.30;30.40;96501.00;;;;6070482;23;20195;-82
2023/06/05 10:34:28;;;;;;;2.42;2.08;;;31.20;43.20;30.40;96499.00;;;;6077811;23;20191;-83
2023/06/05 10:37:42;;;;;;;2.13;1.80;;;31.30;43.20;30.50;96502.00;;;;6071236;23;20197;-83
2023/06/05 10:40:11;;;;;;;2.53;2.30;;;31.30;43.30;30.60;96490.00;;;;6071236;23;20259;-83
2023/06/05 10:42:38;;;;;;;2.05;1.88;;;31.40;43.20;30.60;96496.00;;;;6094846;23;20593;-83
2023/06/05 10:45:08;;;;;;;1.92;1.73;;;31.30;42.80;30.70;96498.00;;;;6070696;23;20226;-83
2023/06/05 10:47:53;;;;;;;7.00;2.28;;;31.30;43.20;30.80;96491.00;;;;6070889;23;20179;-81
2023/06/05 10:50:30;;;;;;;2.53;1.85;;;31.30;42.50;30.80;96495.00;;;;6046014;23;20246;-84
2023/06/05 10:52:59;;;;;;;2.30;1.92;;;31.40;42.50;30.90;96495.00;;;;6070948;23;20243;-84
2023/06/05 10:55:41;;;;;;;3.10;2.15;;;31.40;42.50;30.90;96492.00;;;;6070336;23;20171;-82
2023/06/05 10:58:14;;;;;;;2.65;2.20;;;31.40;42.30;30.80;96493.00;;;;6095994;23;20156;-82
2023/06/05 11:01:20;;;;;;;2.30;2.10;;;31.30;42.20;30.60;96490.00;;;;6069104;23;20519;-83
2023/06/05 11:03:59;;;;;;;2.70;2.00;;;31.20;41.20;30.50;96499.00;;;;6094488;23;20254;-83
2023/06/05 11:06:29;;;;;;;3.00;2.00;;;31.10;41.20;30.30;96487.00;;;;6080869;23;20179;-81